createdAt,value
2019-05-26T00:02:31.423Z,16.70
2019-05-26T00:06:32.439Z,16.40
2019-05-26T00:10:33.334Z,16.20
2019-05-26T00:14:34.217Z,15.70
2019-05-26T00:18:35.103Z,15.90
2019-05-26T00:22:35.971Z,16.00
2019-05-26T00:26:36.888Z,16.20
2019-05-26T00:30:37.932Z,16.00
2019-05-26T00:34:38.934Z,16.10
2019-05-26T00:38:40.123Z,16.00
2019-05-26T00:42:40.980Z,15.40
2019-05-26T00:46:42.079Z,15.30
2019-05-26T00:50:43.064Z,15.50
2019-05-26T00:54:44.038Z,15.10
2019-05-26T00:58:44.913Z,15.20
2019-05-26T01:02:45.792Z,15.20
2019-05-26T01:06:46.793Z,15.50
2019-05-26T01:10:47.672Z,15.50
2019-05-26T01:14:48.576Z,15.70
2019-05-26T01:18:49.403Z,15.70
2019-05-26T01:22:53.609Z,15.70
2019-05-26T01:26:53.102Z,15.60
2019-05-26T01:30:54.214Z,15.40
2019-05-26T01:34:55.090Z,15.40
2019-05-26T01:38:57.120Z,14.50
2019-05-26T01:42:58.089Z,14.70
2019-05-26T01:46:59.012Z,15.00
2019-05-26T01:51:00.082Z,15.30
2019-05-26T01:55:00.933Z,15.30
2019-05-26T01:59:02.006Z,15.20
2019-05-26T02:03:03.287Z,14.90
2019-05-26T02:07:04.399Z,15.00
2019-05-26T02:11:05.266Z,15.00
2019-05-26T02:15:07.072Z,15.00
2019-05-26T02:19:08.036Z,14.90
2019-05-26T02:23:09.010Z,14.80
2019-05-26T02:27:10.047Z,14.80
2019-05-26T02:31:11.050Z,14.70
2019-05-26T02:35:12.455Z,14.80
2019-05-26T02:39:13.338Z,14.80
2019-05-26T02:43:14.291Z,14.50
2019-05-26T02:47:15.139Z,14.40
2019-05-26T02:51:16.082Z,14.40
2019-05-26T02:55:17.707Z,14.40
2019-05-26T02:59:18.570Z,14.30
2019-05-26T03:03:19.549Z,14.10
2019-05-26T03:07:23.422Z,14.40
2019-05-26T03:11:26.432Z,14.60
2019-05-26T03:15:28.121Z,14.30
2019-05-26T03:19:32.519Z,14.40
2019-05-26T03:23:33.549Z,14.50
2019-05-26T03:27:34.433Z,14.60
2019-05-26T03:31:35.410Z,14.40
2019-05-26T03:35:36.298Z,14.50
2019-05-26T03:39:45.394Z,14.40
2019-05-26T03:43:39.991Z,14.40
2019-05-26T03:47:40.966Z,14.40
2019-05-26T03:51:41.843Z,14.40
2019-05-26T03:55:42.723Z,14.70
2019-05-26T03:59:43.771Z,14.70
2019-05-26T04:03:44.649Z,14.70
2019-05-26T04:07:45.561Z,14.60
2019-05-26T04:11:46.440Z,14.80
2019-05-26T04:15:47.392Z,14.80
2019-05-26T04:19:48.246Z,14.90
2019-05-26T04:23:49.182Z,14.80
2019-05-26T04:27:50.149Z,14.90
2019-05-26T04:31:51.226Z,15.10
2019-05-26T04:35:52.092Z,15.50
2019-05-26T04:39:52.991Z,15.60
2019-05-26T04:43:53.950Z,15.60
2019-05-26T04:47:55.125Z,16.00
2019-05-26T04:51:56.062Z,16.30
2019-05-26T04:55:56.922Z,16.60
2019-05-26T04:59:57.829Z,17.00
2019-05-26T05:03:58.707Z,17.20
2019-05-26T05:07:59.666Z,17.60
2019-05-26T05:12:00.713Z,17.70
2019-05-26T05:16:01.587Z,18.00
2019-05-26T05:20:06.937Z,18.40
2019-05-26T05:24:07.787Z,18.60
2019-05-26T05:28:08.756Z,18.80
2019-05-26T05:32:09.646Z,18.80
2019-05-26T05:36:10.767Z,19.20
2019-05-26T05:40:12.207Z,19.50
2019-05-26T05:44:13.167Z,19.90
2019-05-26T05:48:14.017Z,20.50
2019-05-26T05:52:14.905Z,21.60
2019-05-26T05:56:15.776Z,22.70
2019-05-26T06:00:16.975Z,23.60
2019-05-26T06:04:17.931Z,24.40
2019-05-26T06:08:19.096Z,25.50
2019-05-26T06:12:20.120Z,27.40
2019-05-26T06:16:21.032Z,29.20
2019-05-26T06:20:22.015Z,28.40
2019-05-26T06:24:22.874Z,26.50
2019-05-26T06:28:23.836Z,23.80
2019-05-26T06:32:24.725Z,22.40
2019-05-26T06:36:25.699Z,20.60
2019-05-26T06:40:26.790Z,18.90
2019-05-26T06:44:27.685Z,19.70
2019-05-26T06:48:28.566Z,21.50
2019-05-26T06:52:29.460Z,22.50
2019-05-26T06:56:30.376Z,22.20
2019-05-26T07:00:31.246Z,22.60
2019-05-26T07:04:32.119Z,22.00
2019-05-26T07:08:33.121Z,22.40
2019-05-26T07:12:34.586Z,22.40
2019-05-26T07:16:38.502Z,22.50
2019-05-26T07:20:38.348Z,23.20
2019-05-26T07:24:39.432Z,24.40
2019-05-26T07:28:40.309Z,22.90
2019-05-26T07:32:41.191Z,23.70
2019-05-26T07:36:42.087Z,23.60
2019-05-26T07:40:43.011Z,23.90
2019-05-26T07:44:43.901Z,23.70
2019-05-26T07:48:44.769Z,24.60
2019-05-26T07:52:45.641Z,24.90
2019-05-26T07:56:46.568Z,23.70
2019-05-26T08:00:47.625Z,23.30
2019-05-26T08:04:48.505Z,23.50
2019-05-26T08:08:49.401Z,24.00
2019-05-26T08:12:50.314Z,22.40
2019-05-26T08:16:51.271Z,24.00
2019-05-26T08:20:52.363Z,23.70
2019-05-26T08:24:53.236Z,23.40
2019-05-26T08:28:54.233Z,23.90
2019-05-26T08:32:55.195Z,24.80
2019-05-26T08:36:56.105Z,23.80
2019-05-26T08:40:57.044Z,23.20
2019-05-26T08:44:57.941Z,23.10
2019-05-26T08:48:58.860Z,23.10
2019-05-26T08:52:59.838Z,21.70
2019-05-26T08:57:00.941Z,22.70
2019-05-26T09:01:01.958Z,22.40
2019-05-26T09:05:06.556Z,24.00
2019-05-26T09:09:07.678Z,23.80
2019-05-26T09:13:08.657Z,23.90
2019-05-26T09:17:09.658Z,23.50
2019-05-26T09:21:10.537Z,23.10
2019-05-26T09:25:11.638Z,23.00
2019-05-26T09:29:12.518Z,23.80
2019-05-26T09:33:13.519Z,24.20
2019-05-26T09:37:14.593Z,24.30
2019-05-26T09:41:15.473Z,25.30
2019-05-26T09:45:16.797Z,25.10
2019-05-26T09:49:17.789Z,24.70
2019-05-26T09:53:18.684Z,25.60
2019-05-26T09:57:21.404Z,26.00
2019-05-26T10:01:22.466Z,26.30
2019-05-26T10:05:23.330Z,25.80
2019-05-26T10:09:24.209Z,24.80
2019-05-26T10:13:31.898Z,24.40
2019-05-26T10:17:27.869Z,24.00
2019-05-26T10:21:28.774Z,24.00
2019-05-26T10:25:29.676Z,25.10
2019-05-26T10:29:30.652Z,25.60
2019-05-26T10:33:31.648Z,26.60
2019-05-26T10:37:32.616Z,25.90
2019-05-26T10:41:33.517Z,25.00
2019-05-26T10:45:34.650Z,25.90
2019-05-26T10:49:35.745Z,26.80
2019-05-26T10:53:36.856Z,25.20
2019-05-26T10:57:37.944Z,25.60
2019-05-26T11:01:38.950Z,26.00
2019-05-26T11:05:40.047Z,25.00
2019-05-26T11:09:41.158Z,25.80
2019-05-26T11:13:42.170Z,26.50
2019-05-26T11:17:43.218Z,26.40
2019-05-26T11:21:44.288Z,26.60
2019-05-26T11:25:45.188Z,26.60
2019-05-26T11:29:46.090Z,26.70
2019-05-26T11:33:47.174Z,26.40
2019-05-26T11:37:48.167Z,27.20
2019-05-26T11:41:54.891Z,26.00
2019-05-26T11:45:51.899Z,26.60
2019-05-26T11:49:52.834Z,26.80
2019-05-26T11:53:53.831Z,26.20
2019-05-26T11:57:54.789Z,27.80
2019-05-26T12:01:55.868Z,29.50
2019-05-26T12:05:56.796Z,30.60
2019-05-26T12:09:57.783Z,30.60
2019-05-26T12:13:58.734Z,28.60
2019-05-26T12:17:59.620Z,27.80
2019-05-26T12:22:00.602Z,30.10
2019-05-26T12:26:01.515Z,29.80
2019-05-26T12:30:04.680Z,30.90
2019-05-26T12:34:05.644Z,30.50
2019-05-26T12:38:06.517Z,30.70
2019-05-26T12:42:07.513Z,31.20
2019-05-26T12:46:08.439Z,31.80
2019-05-26T12:50:09.934Z,31.50
2019-05-26T12:54:10.902Z,31.90
2019-05-26T12:58:11.908Z,32.50
2019-05-26T13:02:16.146Z,30.20
2019-05-26T13:06:17.799Z,28.70
2019-05-26T13:10:19.002Z,29.80
2019-05-26T13:14:19.884Z,30.10
2019-05-26T13:18:20.922Z,29.70
2019-05-26T13:22:21.884Z,29.60
2019-05-26T13:26:22.864Z,31.40
2019-05-26T13:30:24.260Z,31.90
2019-05-26T13:34:25.273Z,30.70
2019-05-26T13:38:26.228Z,30.50
2019-05-26T13:42:27.193Z,30.20
2019-05-26T13:46:28.131Z,30.00
2019-05-26T13:50:29.016Z,28.90
2019-05-26T13:54:29.921Z,29.40
2019-05-26T13:58:30.876Z,30.90
2019-05-26T14:02:31.853Z,29.60
2019-05-26T14:06:32.846Z,28.50
2019-05-26T14:10:35.460Z,29.10
2019-05-26T14:14:36.376Z,31.90
2019-05-26T14:18:39.519Z,32.50
2019-05-26T14:22:40.568Z,33.70
2019-05-26T14:26:41.467Z,33.40
2019-05-26T14:30:42.368Z,33.30
2019-05-26T14:34:43.320Z,31.30
2019-05-26T14:38:44.307Z,32.30
2019-05-26T14:42:45.298Z,31.80
2019-05-26T14:46:46.432Z,32.40
2019-05-26T14:50:47.616Z,33.40
2019-05-26T14:54:48.619Z,34.40
2019-05-26T14:58:49.663Z,33.80
2019-05-26T15:02:50.603Z,31.30
2019-05-26T15:06:51.607Z,30.40
2019-05-26T15:10:52.695Z,30.10
2019-05-26T15:14:53.901Z,29.20
2019-05-26T15:18:54.881Z,30.10
2019-05-26T15:22:55.756Z,29.50
2019-05-26T15:26:56.625Z,30.00
2019-05-26T15:30:57.620Z,30.10
2019-05-26T15:34:58.653Z,29.10
2019-05-26T15:38:59.722Z,27.60
2019-05-26T15:43:00.659Z,28.00
2019-05-26T15:47:01.735Z,27.40
2019-05-26T15:51:03.731Z,27.10
2019-05-26T15:55:05.478Z,27.70
2019-05-26T15:59:06.463Z,28.30
2019-05-26T16:03:07.386Z,28.60
2019-05-26T16:07:08.500Z,27.90
2019-05-26T16:11:09.585Z,27.30
2019-05-26T16:15:11.282Z,28.30
2019-05-26T16:19:12.506Z,28.60
2019-05-26T16:23:13.477Z,29.30
2019-05-26T16:27:19.159Z,27.70
2019-05-26T16:31:17.312Z,26.80
2019-05-26T16:35:18.459Z,26.10
2019-05-26T16:39:19.596Z,25.70
2019-05-26T16:43:20.475Z,25.60
2019-05-26T16:47:21.402Z,26.10
2019-05-26T16:51:22.475Z,27.00
2019-05-26T16:55:23.414Z,27.10
2019-05-26T16:59:24.460Z,26.90
2019-05-26T17:03:25.381Z,25.20
2019-05-26T17:07:26.573Z,25.70
2019-05-26T17:11:28.258Z,25.80
2019-05-26T17:15:29.234Z,25.60
2019-05-26T17:19:30.201Z,24.40
2019-05-26T17:23:31.075Z,24.70
2019-05-26T17:27:31.987Z,25.10
2019-05-26T17:31:32.885Z,25.40
2019-05-26T17:35:33.878Z,25.20
2019-05-26T17:39:34.931Z,25.70
2019-05-26T17:43:35.861Z,25.90
2019-05-26T17:47:36.989Z,25.50
2019-05-26T17:51:38.108Z,25.40
2019-05-26T17:55:39.239Z,25.90
2019-05-26T17:59:40.310Z,24.10
2019-05-26T18:03:41.417Z,24.50
2019-05-26T18:07:42.308Z,24.10
2019-05-26T18:11:43.311Z,24.80
2019-05-26T18:15:44.496Z,24.20
2019-05-26T18:19:45.534Z,24.50
2019-05-26T18:23:46.518Z,23.80
2019-05-26T18:27:47.409Z,23.30
2019-05-26T18:31:48.419Z,23.50
2019-05-26T18:35:49.513Z,23.00
2019-05-26T18:39:50.632Z,22.30
2019-05-26T18:43:51.849Z,22.20
2019-05-26T18:48:02.416Z,21.90
2019-05-26T18:51:55.891Z,22.30
2019-05-26T18:55:56.903Z,22.20
2019-05-26T18:59:57.994Z,22.70
2019-05-26T19:03:59.028Z,22.80
2019-05-26T19:08:00.050Z,23.10
2019-05-26T19:12:01.264Z,23.10
2019-05-26T19:16:02.749Z,23.30
2019-05-26T19:20:15.616Z,23.10
2019-05-26T19:24:08.159Z,23.30
2019-05-26T19:28:09.174Z,23.60
2019-05-26T19:32:10.290Z,23.50
2019-05-26T19:36:11.360Z,23.10
2019-05-26T19:40:14.075Z,23.10
2019-05-26T19:44:14.975Z,23.10
2019-05-26T19:48:15.906Z,23.00
2019-05-26T19:52:16.943Z,23.00
2019-05-26T19:56:18.182Z,22.70
2019-05-26T20:00:21.360Z,23.00
2019-05-26T20:04:22.312Z,22.60
2019-05-26T20:08:23.389Z,22.20
2019-05-26T20:12:24.320Z,22.60
2019-05-26T20:16:25.224Z,22.20
2019-05-26T20:20:26.233Z,22.40
2019-05-26T20:24:27.164Z,22.00
2019-05-26T20:28:28.402Z,22.10
2019-05-26T20:32:29.780Z,22.20
2019-05-26T20:36:30.712Z,22.50
2019-05-26T20:40:31.795Z,22.50
2019-05-26T20:44:32.686Z,22.00
2019-05-26T20:48:36.263Z,21.80
2019-05-26T20:52:37.413Z,21.60
2019-05-26T20:56:39.314Z,22.10
2019-05-26T21:00:40.593Z,21.70
2019-05-26T21:04:41.514Z,22.50
2019-05-26T21:08:42.414Z,22.40
2019-05-26T21:12:43.304Z,22.40
2019-05-26T21:16:44.326Z,22.10
2019-05-26T21:20:45.486Z,22.30
2019-05-26T21:24:46.396Z,21.50
2019-05-26T21:28:47.336Z,21.60
2019-05-26T21:32:48.207Z,21.90
2019-05-26T21:36:49.087Z,22.10
2019-05-26T21:40:50.002Z,22.20
2019-05-26T21:44:50.892Z,22.20
2019-05-26T21:48:51.773Z,21.70
2019-05-26T21:52:52.674Z,21.80
2019-05-26T21:56:53.560Z,22.00
2019-05-26T22:00:55.004Z,21.40
2019-05-26T22:04:56.009Z,21.90
2019-05-26T22:08:56.993Z,22.10
2019-05-26T22:12:57.884Z,22.20
2019-05-26T22:16:58.868Z,22.00
2019-05-26T22:20:59.746Z,22.10
2019-05-26T22:25:00.603Z,22.40
2019-05-26T22:29:01.689Z,22.80
2019-05-26T22:33:03.491Z,22.30
2019-05-26T22:37:04.490Z,22.30
2019-05-26T22:41:05.497Z,22.50
2019-05-26T22:45:07.005Z,22.70
2019-05-26T22:49:08.066Z,22.40
2019-05-26T22:53:08.967Z,22.40
2019-05-26T22:57:09.857Z,22.10
2019-05-26T23:01:10.844Z,21.90
2019-05-26T23:05:12.197Z,22.10
2019-05-26T23:09:13.078Z,21.80
2019-05-26T23:13:14.048Z,21.50
2019-05-26T23:17:15.023Z,20.50
2019-05-26T23:21:15.892Z,20.80
2019-05-26T23:25:16.957Z,20.90
2019-05-26T23:29:17.957Z,20.60
2019-05-26T23:33:18.811Z,20.70
2019-05-26T23:37:19.820Z,21.10
2019-05-26T23:41:20.694Z,21.10
2019-05-26T23:45:21.573Z,21.40
2019-05-26T23:49:22.476Z,21.70
2019-05-26T23:53:23.376Z,21.30
2019-05-26T23:57:24.267Z,21.20
